sensor_id;sensor_type;location;lat;lon;timestamp;pressure;altitude;pressure_sealevel;temperature;humidity
27864;BME280;15980;51.092;13.916;2023-04-15T00:08:08;97471.16;;;6.83;100.00
27864;BME280;15980;51.092;13.916;2023-04-15T00:18:08;97473.88;;;6.83;100.00
27864;BME280;15980;51.092;13.916;2023-04-15T00:28:08;97465.75;;;6.71;100.00
27864;BME280;15980;51.092;13.916;2023-04-15T00:38:09;97472.63;;;6.81;100.00
27864;BME280;15980;51.092;13.916;2023-04-15T00:48:09;97454.19;;;6.62;100.00
27864;BME280;15980;51.092;13.916;2023-04-15T00:58:10;97441.41;;;6.78;100.00
27864;BME280;15980;51.092;13.916;2023-04-15T01:08:10;97441.09;;;6.68;100.00
27864;BME280;15980;51.092;13.916;2023-04-15T01:18:10;97431.13;;;6.59;100.00
27864;BME280;15980;51.092;13.916;2023-04-15T01:28:11;97424.09;;;6.58;100.00
27864;BME280;15980;51.092;13.916;2023-04-15T01:38:11;97431.59;;;6.61;100.00
27864;BME280;15980;51.092;13.916;2023-04-15T01:48:12;97410.91;;;6.60;100.00
27864;BME280;15980;51.092;13.916;2023-04-15T01:58:12;97409.78;;;6.61;100.00
27864;BME280;15980;51.092;13.916;2023-04-15T02:08:12;97401.00;;;6.68;100.00
27864;BME280;15980;51.092;13.916;2023-04-15T02:18:14;97390.34;;;6.63;100.00
27864;BME280;15980;51.092;13.916;2023-04-15T02:28:14;97387.38;;;6.68;100.00
27864;BME280;15980;51.092;13.916;2023-04-15T02:38:14;97395.66;;;6.72;100.00
27864;BME280;15980;51.092;13.916;2023-04-15T02:48:15;97392.69;;;6.77;100.00
27864;BME280;15980;51.092;13.916;2023-04-15T02:58:15;97386.88;;;6.78;100.00
27864;BME280;15980;51.092;13.916;2023-04-15T03:08:15;97382.56;;;6.77;100.00
27864;BME280;15980;51.092;13.916;2023-04-15T03:18:15;97362.59;;;6.73;100.00
27864;BME280;15980;51.092;13.916;2023-04-15T03:28:16;97367.19;;;6.85;100.00
27864;BME280;15980;51.092;13.916;2023-04-15T03:38:16;97359.91;;;6.89;100.00
27864;BME280;15980;51.092;13.916;2023-04-15T03:48:17;97361.94;;;6.92;100.00
27864;BME280;15980;51.092;13.916;2023-04-15T03:58:17;97355.03;;;6.95;100.00
27864;BME280;15980;51.092;13.916;2023-04-15T04:08:17;97358.13;;;6.81;100.00
27864;BME280;15980;51.092;13.916;2023-04-15T04:18:18;97355.16;;;6.86;100.00
27864;BME280;15980;51.092;13.916;2023-04-15T04:28:18;97360.22;;;7.00;100.00
27864;BME280;15980;51.092;13.916;2023-04-15T04:38:18;97367.78;;;7.06;100.00
27864;BME280;15980;51.092;13.916;2023-04-15T04:48:18;97380.09;;;7.00;100.00
27864;BME280;15980;51.092;13.916;2023-04-15T04:58:19;97383.66;;;7.32;100.00
27864;BME280;15980;51.092;13.916;2023-04-15T05:08:19;97386.22;;;7.41;100.00
27864;BME280;15980;51.092;13.916;2023-04-15T05:18:19;97399.31;;;7.35;100.00
27864;BME280;15980;51.092;13.916;2023-04-15T05:28:20;97394.94;;;7.46;100.00
27864;BME280;15980;51.092;13.916;2023-04-15T05:38:20;97395.84;;;7.50;100.00
27864;BME280;15980;51.092;13.916;2023-04-15T05:48:20;97409.91;;;7.52;100.00
27864;BME280;15980;51.092;13.916;2023-04-15T05:58:20;97426.03;;;7.57;100.00
27864;BME280;15980;51.092;13.916;2023-04-15T06:08:21;97441.34;;;7.62;100.00
27864;BME280;15980;51.092;13.916;2023-04-15T06:18:21;97441.78;;;7.64;100.00
27864;BME280;15980;51.092;13.916;2023-04-15T06:28:21;97444.44;;;7.76;100.00
27864;BME280;15980;51.092;13.916;2023-04-15T06:38:21;97448.38;;;8.26;100.00
27864;BME280;15980;51.092;13.916;2023-04-15T06:48:22;97466.09;;;8.32;100.00
27864;BME280;15980;51.092;13.916;2023-04-15T06:58:23;97465.84;;;8.37;100.00
27864;BME280;15980;51.092;13.916;2023-04-15T07:08:23;97471.78;;;8.59;100.00
27864;BME280;15980;51.092;13.916;2023-04-15T07:18:23;97496.25;;;8.87;100.00
27864;BME280;15980;51.092;13.916;2023-04-15T07:28:24;97505.97;;;8.84;100.00
27864;BME280;15980;51.092;13.916;2023-04-15T07:38:25;97507.88;;;9.19;100.00
27864;BME280;15980;51.092;13.916;2023-04-15T07:48:25;97515.44;;;9.25;100.00
27864;BME280;15980;51.092;13.916;2023-04-15T07:58:25;97530.25;;;9.43;100.00
27864;BME280;15980;51.092;13.916;2023-04-15T08:08:25;97541.22;;;9.63;98.62
27864;BME280;15980;51.092;13.916;2023-04-15T08:18:26;97552.28;;;9.51;96.68
27864;BME280;15980;51.092;13.916;2023-04-15T08:28:26;97561.09;;;9.40;97.89
27864;BME280;15980;51.092;13.916;2023-04-15T08:38:26;97565.06;;;8.89;97.79
27864;BME280;15980;51.092;13.916;2023-04-15T08:48:32;97579.03;;;8.68;97.45
27864;BME280;15980;51.092;13.916;2023-04-15T08:58:32;97591.94;;;8.67;97.75
27864;BME280;15980;51.092;13.916;2023-04-15T09:08:33;97597.91;;;8.73;97.79
27864;BME280;15980;51.092;13.916;2023-04-15T09:18:34;97601.84;;;9.26;96.08
27864;BME280;15980;51.092;13.916;2023-04-15T09:28:41;97619.34;;;9.22;94.66
27864;BME280;15980;51.092;13.916;2023-04-15T09:38:58;97629.41;;;8.82;93.62
27864;BME280;15980;51.092;13.916;2023-04-15T09:49:10;97636.44;;;8.84;95.32
27864;BME280;15980;51.092;13.916;2023-04-15T09:59:10;97643.50;;;8.85;93.67
27864;BME280;15980;51.092;13.916;2023-04-15T10:09:11;97654.06;;;9.02;92.74
27864;BME280;15980;51.092;13.916;2023-04-15T10:19:12;97655.59;;;9.34;91.33
27864;BME280;15980;51.092;13.916;2023-04-15T10:29:13;97669.34;;;10.31;88.96
27864;BME280;15980;51.092;13.916;2023-04-15T10:39:49;97679.44;;;10.46;85.86
27864;BME280;15980;51.092;13.916;2023-04-15T10:49:56;97685.81;;;10.96;84.06
27864;BME280;15980;51.092;13.916;2023-04-15T11:09:57;97697.03;;;10.87;81.48
27864;BME280;15980;51.092;13.916;2023-04-15T11:19:57;97717.66;;;10.58;82.48
27864;BME280;15980;51.092;13.916;2023-04-15T11:29:58;97724.38;;;10.84;83.10
27864;BME280;15980;51.092;13.916;2023-04-15T11:40:01;97728.00;;;10.88;79.81
27864;BME280;15980;51.092;13.916;2023-04-15T12:00:13;97744.69;;;10.79;79.92
27864;BME280;15980;51.092;13.916;2023-04-15T12:10:13;97762.16;;;10.90;79.67
27864;BME280;15980;51.092;13.916;2023-04-15T12:20:20;97765.38;;;11.19;79.71
27864;BME280;15980;51.092;13.916;2023-04-15T12:30:21;97787.84;;;11.24;78.58
27864;BME280;15980;51.092;13.916;2023-04-15T12:40:21;97794.06;;;10.98;77.73
27864;BME280;15980;51.092;13.916;2023-04-15T12:50:21;97800.66;;;11.40;76.78
27864;BME280;15980;51.092;13.916;2023-04-15T13:00:22;97817.75;;;11.52;76.60
27864;BME280;15980;51.092;13.916;2023-04-15T13:10:22;97820.91;;;11.77;78.49
27864;BME280;15980;51.092;13.916;2023-04-15T13:20:24;97824.13;;;12.09;76.66
27864;BME280;15980;51.092;13.916;2023-04-15T13:30:24;97824.09;;;12.66;73.10
27864;BME280;15980;51.092;13.916;2023-04-15T13:40:25;97827.22;;;13.35;71.23
27864;BME280;15980;51.092;13.916;2023-04-15T13:50:26;97840.94;;;13.28;70.26
27864;BME280;15980;51.092;13.916;2023-04-15T14:00:27;97838.97;;;12.95;72.21
27864;BME280;15980;51.092;13.916;2023-04-15T14:10:27;97851.56;;;12.96;71.96
27864;BME280;15980;51.092;13.916;2023-04-15T14:20:27;97869.81;;;12.74;70.74
27864;BME280;15980;51.092;13.916;2023-04-15T14:30:27;97871.78;;;12.73;71.76
27864;BME280;15980;51.092;13.916;2023-04-15T14:40:28;97894.19;;;13.05;70.62
27864;BME280;15980;51.092;13.916;2023-04-15T14:50:28;97902.53;;;13.12;68.89
27864;BME280;15980;51.092;13.916;2023-04-15T15:00:29;97910.75;;;13.42;69.57
27864;BME280;15980;51.092;13.916;2023-04-15T15:10:29;97921.25;;;13.30;68.33
27864;BME280;15980;51.092;13.916;2023-04-15T15:20:29;97931.34;;;13.18;68.99
27864;BME280;15980;51.092;13.916;2023-04-15T15:30:30;97945.84;;;12.85;69.16
27864;BME280;15980;51.092;13.916;2023-04-15T15:40:30;97953.94;;;12.45;70.63
27864;BME280;15980;51.092;13.916;2023-04-15T15:50:31;97972.56;;;12.06;70.42
27864;BME280;15980;51.092;13.916;2023-04-15T16:00:31;97978.38;;;11.78;72.45
27864;BME280;15980;51.092;13.916;2023-04-15T16:10:31;97983.34;;;11.72;72.64
27864;BME280;15980;51.092;13.916;2023-04-15T16:20:32;97991.66;;;11.76;72.22
27864;BME280;15980;51.092;13.916;2023-04-15T16:30:39;98008.59;;;11.58;73.42
27864;BME280;15980;51.092;13.916;2023-04-15T16:40:39;98017.78;;;11.08;71.55
27864;BME280;15980;51.092;13.916;2023-04-15T16:50:39;98026.00;;;10.89;71.67
27864;BME280;15980;51.092;13.916;2023-04-15T17:00:40;98029.03;;;10.68;74.49
27864;BME280;15980;51.092;13.916;2023-04-15T17:10:40;98052.06;;;10.48;75.87
27864;BME280;15980;51.092;13.916;2023-04-15T17:20:40;98048.97;;;10.49;81.04
27864;BME280;15980;51.092;13.916;2023-04-15T17:30:42;98053.47;;;10.26;84.04
27864;BME280;15980;51.092;13.916;2023-04-15T17:40:42;98070.59;;;10.07;86.07
27864;BME280;15980;51.092;13.916;2023-04-15T17:50:42;98076.13;;;9.79;87.10
27864;BME280;15980;51.092;13.916;2023-04-15T18:00:43;98100.13;;;9.70;88.37
27864;BME280;15980;51.092;13.916;2023-04-15T18:10:43;98114.44;;;9.51;89.75
27864;BME280;15980;51.092;13.916;2023-04-15T18:20:43;98120.63;;;9.48;90.69
27864;BME280;15980;51.092;13.916;2023-04-15T18:30:43;98157.03;;;9.36;91.89
27864;BME280;15980;51.092;13.916;2023-04-15T18:40:44;98158.44;;;9.06;92.11
27864;BME280;15980;51.092;13.916;2023-04-15T18:50:44;98156.63;;;8.73;92.63
27864;BME280;15980;51.092;13.916;2023-04-15T19:00:44;98169.38;;;8.57;93.33
27864;BME280;15980;51.092;13.916;2023-04-15T19:10:44;98176.28;;;8.42;94.71
27864;BME280;15980;51.092;13.916;2023-04-15T19:20:45;98196.38;;;8.26;95.00
27864;BME280;15980;51.092;13.916;2023-04-15T19:30:45;98201.19;;;8.08;95.11
27864;BME280;15980;51.092;13.916;2023-04-15T19:40:45;98203.91;;;7.96;96.36
27864;BME280;15980;51.092;13.916;2023-04-15T19:50:46;98212.84;;;7.84;95.52
27864;BME280;15980;51.092;13.916;2023-04-15T20:00:46;98226.81;;;7.62;95.42
27864;BME280;15980;51.092;13.916;2023-04-15T20:10:47;98240.31;;;7.37;96.22
27864;BME280;15980;51.092;13.916;2023-04-15T20:20:47;98252.56;;;7.22;96.14
27864;BME280;15980;51.092;13.916;2023-04-15T20:30:47;98265.13;;;7.15;96.91
27864;BME280;15980;51.092;13.916;2023-04-15T20:40:47;98273.81;;;7.08;97.25
27864;BME280;15980;51.092;13.916;2023-04-15T20:50:48;98283.75;;;7.13;96.91
27864;BME280;15980;51.092;13.916;2023-04-15T21:00:49;98287.09;;;7.18;97.90
27864;BME280;15980;51.092;13.916;2023-04-15T21:10:49;98305.84;;;7.20;98.13
27864;BME280;15980;51.092;13.916;2023-04-15T21:20:56;98306.69;;;7.12;98.50
27864;BME280;15980;51.092;13.916;2023-04-15T21:30:57;98314.25;;;7.06;98.52
27864;BME280;15980;51.092;13.916;2023-04-15T21:40:57;98330.63;;;7.06;98.84
27864;BME280;15980;51.092;13.916;2023-04-15T21:50:58;98337.38;;;7.09;98.58
27864;BME280;15980;51.092;13.916;2023-04-15T22:00:58;98341.91;;;6.96;99.08
27864;BME280;15980;51.092;13.916;2023-04-15T22:10:58;98356.19;;;6.84;99.97
27864;BME280;15980;51.092;13.916;2023-04-15T22:20:59;98369.19;;;6.79;99.92
27864;BME280;15980;51.092;13.916;2023-04-15T22:30:59;98363.91;;;6.74;100.00
27864;BME280;15980;51.092;13.916;2023-04-15T22:40:59;98383.00;;;6.65;100.00
27864;BME280;15980;51.092;13.916;2023-04-15T22:51:00;98389.91;;;6.54;100.00
27864;BME280;15980;51.092;13.916;2023-04-15T23:01:00;98400.00;;;6.45;100.00
27864;BME280;15980;51.092;13.916;2023-04-15T23:11:00;98409.94;;;6.41;100.00
27864;BME280;15980;51.092;13.916;2023-04-15T23:21:02;98405.59;;;6.40;100.00
27864;BME280;15980;51.092;13.916;2023-04-15T23:31:02;98408.47;;;6.35;100.00
27864;BME280;15980;51.092;13.916;2023-04-15T23:41:02;98421.63;;;6.24;100.00
27864;BME280;15980;51.092;13.916;2023-04-15T23:51:03;98420.66;;;6.11;100.00
